createdAt,value
2023-03-19T00:00:23.964Z,96.80
2023-03-19T00:00:55.793Z,96.80
2023-03-19T00:01:27.795Z,96.50
2023-03-19T00:02:08.982Z,96.90
2023-03-19T00:02:51.259Z,96.30
2023-03-19T00:03:23.194Z,97.00
2023-03-19T00:03:55.396Z,97.00
2023-03-19T00:04:27.860Z,97.00
2023-03-19T00:04:59.594Z,96.40
2023-03-19T00:05:31.408Z,96.80
2023-03-19T00:06:03.799Z,97.00
2023-03-19T00:06:35.767Z,96.60
2023-03-19T00:07:07.656Z,96.50
2023-03-19T00:07:39.371Z,97.30
2023-03-19T00:08:11.099Z,96.70
2023-03-19T00:08:42.892Z,97.00
2023-03-19T00:09:14.661Z,96.70
2023-03-19T00:09:48.276Z,97.40
2023-03-19T00:10:20.551Z,96.30
2023-03-19T00:10:52.506Z,96.70
2023-03-19T00:11:24.301Z,96.60
2023-03-19T00:11:56.726Z,96.30
2023-03-19T00:12:28.454Z,96.00
2023-03-19T00:13:00.561Z,96.30
2023-03-19T00:13:32.449Z,96.40
2023-03-19T00:14:04.336Z,96.30
2023-03-19T00:14:36.381Z,96.50
2023-03-19T00:15:13.949Z,96.30
2023-03-19T00:15:47.279Z,98.60
2023-03-19T00:16:19.076Z,96.10
2023-03-19T00:16:51.417Z,96.80
2023-03-19T00:17:23.231Z,96.60
2023-03-19T00:17:56.569Z,96.80
2023-03-19T00:18:28.397Z,97.90
2023-03-19T00:19:01.223Z,98.60
2023-03-19T00:19:33.068Z,97.40
2023-03-19T00:20:05.401Z,96.70
2023-03-19T00:20:37.133Z,96.60
2023-03-19T00:21:09.323Z,97.20
2023-03-19T00:21:41.205Z,97.00
2023-03-19T00:22:13.005Z,97.20
2023-03-19T00:22:44.748Z,97.20
2023-03-19T00:23:16.993Z,96.70
2023-03-19T00:23:48.835Z,97.20
2023-03-19T00:24:20.705Z,98.90
2023-03-19T00:24:53.568Z,98.10
2023-03-19T00:25:25.320Z,97.50
2023-03-19T00:25:57.247Z,96.80
2023-03-19T00:26:29.986Z,97.10
2023-03-19T00:27:03.628Z,97.30
2023-03-19T00:27:37.241Z,97.60
2023-03-19T00:28:09.822Z,97.00
2023-03-19T00:28:41.653Z,96.90
2023-03-19T00:29:14.507Z,99.90
2023-03-19T00:29:46.264Z,97.30
2023-03-19T00:30:18.210Z,97.30
2023-03-19T00:30:50.243Z,97.70
2023-03-19T00:31:22.855Z,97.20
2023-03-19T00:31:54.646Z,98.10
2023-03-19T00:32:26.524Z,96.80
2023-03-19T00:32:58.313Z,98.40
2023-03-19T00:33:31.032Z,97.80
2023-03-19T00:34:03.394Z,97.40
2023-03-19T00:34:35.164Z,97.60
2023-03-19T00:35:08.204Z,97.50
2023-03-19T00:35:40.483Z,96.70
2023-03-19T00:36:12.852Z,96.80
2023-03-19T00:36:46.850Z,96.80
2023-03-19T00:37:18.803Z,96.50
2023-03-19T00:37:50.535Z,97.90
2023-03-19T00:38:22.277Z,97.00
2023-03-19T00:38:54.508Z,96.60
2023-03-19T00:39:26.293Z,96.30
2023-03-19T00:39:58.302Z,98.00
2023-03-19T00:40:30.424Z,97.40
2023-03-19T00:41:03.432Z,96.80
2023-03-19T00:41:35.911Z,97.40
2023-03-19T00:42:07.781Z,97.50
2023-03-19T00:42:40.265Z,97.40
2023-03-19T00:43:12.136Z,97.60
2023-03-19T00:43:43.889Z,98.40
2023-03-19T00:44:19.128Z,97.30
2023-03-19T00:44:51.016Z,97.20
2023-03-19T00:45:22.953Z,97.70
2023-03-19T00:45:55.022Z,97.40
2023-03-19T00:46:27.356Z,97.90
2023-03-19T00:46:59.215Z,97.40
2023-03-19T00:47:31.277Z,98.10
2023-03-19T00:48:03.119Z,97.50
2023-03-19T00:48:34.920Z,97.20
2023-03-19T00:49:07.367Z,98.60
2023-03-19T00:49:39.160Z,97.30
2023-03-19T00:50:11.597Z,97.50
2023-03-19T00:50:43.426Z,99.30
2023-03-19T00:51:15.459Z,98.50
2023-03-19T00:51:47.733Z,98.30
2023-03-19T00:52:19.720Z,97.20
2023-03-19T00:52:52.299Z,98.50
2023-03-19T00:53:24.079Z,97.20
2023-03-19T00:53:56.018Z,97.80
2023-03-19T00:54:27.918Z,97.40
2023-03-19T00:54:59.648Z,97.50
2023-03-19T00:55:31.504Z,97.60
2023-03-19T00:56:03.828Z,97.90
2023-03-19T00:56:35.731Z,97.50
2023-03-19T00:57:07.961Z,97.60
2023-03-19T00:57:39.829Z,96.90
2023-03-19T00:58:11.907Z,97.10
2023-03-19T00:58:44.052Z,97.80
2023-03-19T00:59:15.989Z,98.00
2023-03-19T00:59:49.211Z,97.40
2023-03-19T01:00:21.022Z,97.40
2023-03-19T01:00:54.572Z,97.30
2023-03-19T01:01:26.407Z,98.30
2023-03-19T01:01:58.185Z,97.70
2023-03-19T01:02:32.014Z,97.60
2023-03-19T01:03:04.193Z,98.00
2023-03-19T01:03:36.561Z,97.20
2023-03-19T01:04:11.302Z,97.40
2023-03-19T01:04:43.976Z,97.10
2023-03-19T01:05:16.444Z,98.00
2023-03-19T01:06:20.901Z,97.80
2023-03-19T01:06:52.822Z,97.90
2023-03-19T01:07:24.696Z,97.70
2023-03-19T01:07:57.446Z,97.50
2023-03-19T01:08:29.292Z,98.00
2023-03-19T01:09:02.539Z,98.00
2023-03-19T01:09:35.882Z,97.20
2023-03-19T01:10:08.306Z,98.10
2023-03-19T01:10:40.062Z,97.40
2023-03-19T01:11:14.930Z,97.10
2023-03-19T01:11:46.748Z,98.30
2023-03-19T01:12:19.445Z,96.70
2023-03-19T01:12:52.013Z,97.20
2023-03-19T01:13:23.952Z,98.80
2023-03-19T01:13:55.932Z,97.50
2023-03-19T01:14:27.701Z,97.20
2023-03-19T01:14:59.561Z,97.50
2023-03-19T01:15:31.490Z,96.10
2023-03-19T01:16:03.590Z,96.50
2023-03-19T01:16:35.609Z,97.50
2023-03-19T01:17:07.438Z,97.30
2023-03-19T01:17:39.382Z,96.10
2023-03-19T01:18:12.421Z,96.40
2023-03-19T01:18:44.172Z,96.10
2023-03-19T01:19:16.323Z,96.90
2023-03-19T01:19:49.393Z,97.00
2023-03-19T01:20:23.950Z,96.20
2023-03-19T01:20:56.734Z,96.80
2023-03-19T01:21:30.975Z,96.10
2023-03-19T01:22:04.342Z,97.20
2023-03-19T01:22:37.753Z,96.60
2023-03-19T01:23:09.704Z,97.90
2023-03-19T01:23:41.610Z,97.10
2023-03-19T01:24:13.592Z,96.30
2023-03-19T01:24:45.934Z,96.80
2023-03-19T01:25:17.994Z,97.30
2023-03-19T01:25:59.155Z,96.70
2023-03-19T01:26:32.368Z,96.60
2023-03-19T01:27:16.110Z,95.20
2023-03-19T01:27:47.947Z,97.40
2023-03-19T01:28:20.525Z,96.90
2023-03-19T01:28:52.925Z,97.20
2023-03-19T01:29:25.999Z,98.20
2023-03-19T01:29:59.467Z,97.80
2023-03-19T01:30:59.967Z,97.40
2023-03-19T01:31:52.172Z,96.50
2023-03-19T01:32:38.423Z,96.50
2023-03-19T01:33:23.122Z,96.70
2023-03-19T01:34:18.605Z,96.60
2023-03-19T01:34:54.794Z,97.60
2023-03-19T01:35:26.707Z,96.80
2023-03-19T01:35:59.462Z,98.00
2023-03-19T01:36:35.591Z,98.70
2023-03-19T01:37:09.617Z,97.10
2023-03-19T01:37:42.716Z,96.80
2023-03-19T01:38:14.723Z,95.70
2023-03-19T01:38:47.063Z,95.80
2023-03-19T01:39:20.983Z,95.80
2023-03-19T01:39:52.786Z,98.40
2023-03-19T01:40:24.538Z,96.40
2023-03-19T01:40:56.662Z,97.00
2023-03-19T01:41:28.491Z,97.40
2023-03-19T01:42:07.309Z,95.00
2023-03-19T01:42:56.411Z,95.20
2023-03-19T01:43:57.536Z,95.20
2023-03-19T01:44:52.153Z,95.90
2023-03-19T01:45:44.087Z,95.40
2023-03-19T01:46:39.371Z,95.20
2023-03-19T01:47:41.506Z,95.00
2023-03-19T01:48:24.234Z,95.20
2023-03-19T01:49:09.088Z,95.10
2023-03-19T01:49:40.925Z,94.90
2023-03-19T01:50:42.250Z,94.90
2023-03-19T01:51:30.882Z,95.10
2023-03-19T01:52:16.104Z,95.10
2023-03-19T01:53:01.921Z,95.20
2023-03-19T01:54:02.774Z,95.20
2023-03-19T01:55:01.579Z,95.20
2023-03-19T01:55:51.605Z,94.90
2023-03-19T01:56:43.324Z,94.90
2023-03-19T01:57:33.964Z,95.00
2023-03-19T01:58:43.575Z,94.90
2023-03-19T01:59:37.756Z,95.00
2023-03-19T02:00:21.632Z,95.20
2023-03-19T02:00:53.739Z,95.20
2023-03-19T02:01:29.305Z,95.20
2023-03-19T02:02:09.557Z,95.10
2023-03-19T02:02:43.776Z,94.90
2023-03-19T02:03:27.262Z,95.10
2023-03-19T02:04:31.630Z,95.00
2023-03-19T02:05:08.129Z,95.10
2023-03-19T02:05:44.125Z,95.00
2023-03-19T02:06:20.928Z,95.10
2023-03-19T02:06:58.297Z,94.90
2023-03-19T02:07:33.476Z,94.90
2023-03-19T02:08:08.868Z,95.10
2023-03-19T02:08:42.199Z,95.00
2023-03-19T02:09:15.487Z,94.90
2023-03-19T02:09:47.526Z,94.90
2023-03-19T02:10:22.200Z,95.00
2023-03-19T02:10:56.228Z,95.10
2023-03-19T02:11:28.578Z,95.10
2023-03-19T02:12:02.195Z,95.20
2023-03-19T02:12:34.609Z,94.90
2023-03-19T02:13:39.196Z,94.80
2023-03-19T02:14:12.321Z,95.10
2023-03-19T02:14:44.226Z,95.00
2023-03-19T02:15:16.389Z,94.80
2023-03-19T02:15:49.276Z,95.10
2023-03-19T02:16:21.375Z,95.10
2023-03-19T02:16:55.796Z,95.10
2023-03-19T02:17:32.299Z,95.00
2023-03-19T02:18:05.084Z,95.50
2023-03-19T02:18:37.738Z,95.10
2023-03-19T02:19:16.884Z,95.10
2023-03-19T02:19:57.367Z,94.90
2023-03-19T02:21:10.146Z,95.10
2023-03-19T02:21:42.089Z,95.00
2023-03-19T02:22:16.570Z,95.10
2023-03-19T02:23:14.642Z,95.30
2023-03-19T02:24:17.434Z,95.10
2023-03-19T02:25:11.259Z,95.10
2023-03-19T02:25:44.823Z,95.20
2023-03-19T02:26:19.764Z,95.30
2023-03-19T02:26:54.726Z,95.00
2023-03-19T02:27:26.642Z,94.30
2023-03-19T02:27:59.715Z,95.70
2023-03-19T02:28:33.845Z,94.90
2023-03-19T02:29:06.085Z,95.10
2023-03-19T02:29:39.884Z,94.90
2023-03-19T02:30:32.386Z,95.70
2023-03-19T02:31:11.025Z,94.90
2023-03-19T02:31:43.058Z,94.90
2023-03-19T02:32:14.892Z,95.40
2023-03-19T02:32:46.914Z,95.30
2023-03-19T02:33:19.838Z,95.30
2023-03-19T02:34:27.125Z,94.90
2023-03-19T02:34:58.880Z,95.20
2023-03-19T02:35:34.828Z,95.10
2023-03-19T02:36:14.754Z,95.10
2023-03-19T02:37:00.929Z,95.00
2023-03-19T02:37:33.853Z,95.10
2023-03-19T02:38:06.471Z,95.10
2023-03-19T02:38:42.707Z,95.80
2023-03-19T02:39:43.481Z,94.90
2023-03-19T02:40:27.121Z,95.00
2023-03-19T02:41:05.846Z,95.00
2023-03-19T02:41:41.597Z,95.00
2023-03-19T02:42:15.995Z,94.80
2023-03-19T02:42:47.891Z,95.30
2023-03-19T02:43:22.152Z,94.90
2023-03-19T02:43:57.855Z,95.00
2023-03-19T02:44:29.669Z,94.80
2023-03-19T02:45:34.008Z,94.90
2023-03-19T02:46:10.496Z,95.10
2023-03-19T02:46:42.303Z,95.40
2023-03-19T02:47:14.667Z,95.10
2023-03-19T02:47:46.558Z,94.70
2023-03-19T02:48:18.502Z,95.00
2023-03-19T02:48:50.270Z,95.10
2023-03-19T02:49:23.042Z,94.90
2023-03-19T02:49:55.024Z,94.90
2023-03-19T02:50:27.390Z,94.90
2023-03-19T02:50:59.379Z,95.10
2023-03-19T02:51:31.273Z,94.80
2023-03-19T02:52:03.320Z,95.10
2023-03-19T02:52:35.527Z,94.80
2023-03-19T02:53:08.061Z,94.90
2023-03-19T02:53:39.797Z,95.20
2023-03-19T02:54:11.538Z,94.80
2023-03-19T02:54:43.307Z,95.20
2023-03-19T02:55:18.247Z,95.20
2023-03-19T02:55:50.269Z,94.90
2023-03-19T02:56:22.676Z,94.90
2023-03-19T02:56:54.415Z,94.90
2023-03-19T02:57:26.523Z,95.20
2023-03-19T02:57:58.332Z,95.10
2023-03-19T02:58:30.231Z,95.10
2023-03-19T02:59:02.236Z,95.10
2023-03-19T02:59:34.644Z,95.00
2023-03-19T03:00:08.998Z,95.20
2023-03-19T03:00:41.445Z,95.10
2023-03-19T03:01:13.286Z,94.90
2023-03-19T03:01:45.085Z,94.80
2023-03-19T03:02:17.425Z,94.80
2023-03-19T03:02:49.200Z,94.60
2023-03-19T03:03:21.225Z,95.10
2023-03-19T03:03:53.201Z,95.00
2023-03-19T03:04:24.945Z,95.10
2023-03-19T03:04:56.902Z,95.20
2023-03-19T03:05:30.388Z,95.00
2023-03-19T03:06:02.205Z,94.80
2023-03-19T03:06:34.076Z,95.60
2023-03-19T03:07:08.442Z,95.40
2023-03-19T03:07:41.292Z,95.00
2023-03-19T03:08:13.104Z,95.00
2023-03-19T03:08:44.890Z,94.80
2023-03-19T03:09:17.112Z,94.80
2023-03-19T03:09:48.871Z,95.00
2023-03-19T03:10:20.642Z,95.00
2023-03-19T03:10:52.478Z,95.20
2023-03-19T03:11:24.573Z,95.00
2023-03-19T03:11:56.399Z,94.80
2023-03-19T03:12:28.199Z,95.00
2023-03-19T03:13:01.240Z,95.10
2023-03-19T03:13:33.096Z,95.00
2023-03-19T03:14:04.946Z,95.10
2023-03-19T03:14:36.766Z,94.80
2023-03-19T03:15:41.647Z,94.90
2023-03-19T03:16:13.587Z,94.80
2023-03-19T03:16:45.813Z,94.80
2023-03-19T03:17:17.882Z,94.80
2023-03-19T03:17:49.681Z,95.50
2023-03-19T03:18:21.434Z,95.00
2023-03-19T03:18:53.153Z,95.30
2023-03-19T03:19:24.991Z,94.80
2023-03-19T03:19:57.006Z,94.80
2023-03-19T03:20:29.100Z,95.10
2023-03-19T03:21:01.441Z,95.10
2023-03-19T03:21:35.485Z,96.90
2023-03-19T03:22:07.997Z,95.70
2023-03-19T03:22:40.987Z,95.00
2023-03-19T03:23:12.877Z,94.80
2023-03-19T03:23:44.621Z,94.80
2023-03-19T03:24:16.446Z,95.00
2023-03-19T03:24:48.282Z,95.40
2023-03-19T03:25:21.028Z,95.50
2023-03-19T03:25:52.793Z,95.00
2023-03-19T03:26:24.758Z,95.00
2023-03-19T03:26:56.623Z,95.20
2023-03-19T03:27:28.357Z,95.00
2023-03-19T03:28:00.102Z,95.60
2023-03-19T03:28:31.863Z,95.10
2023-03-19T03:29:36.809Z,94.80
2023-03-19T03:30:42.601Z,94.80
2023-03-19T03:31:14.925Z,95.00
2023-03-19T03:31:46.881Z,94.90
2023-03-19T03:32:50.916Z,94.80
2023-03-19T03:33:23.453Z,94.80
2023-03-19T03:33:55.270Z,94.90
2023-03-19T03:34:27.374Z,94.80
2023-03-19T03:34:59.117Z,95.50
2023-03-19T03:35:30.903Z,95.10
2023-03-19T03:36:02.961Z,94.80
2023-03-19T03:36:35.008Z,95.10
2023-03-19T03:37:06.914Z,95.00
2023-03-19T03:37:39.617Z,94.80
2023-03-19T03:38:11.555Z,95.70
2023-03-19T03:38:43.376Z,95.00
2023-03-19T03:39:15.187Z,95.10
2023-03-19T03:39:48.205Z,95.00
2023-03-19T03:40:20.427Z,95.80
2023-03-19T03:40:53.553Z,95.00
2023-03-19T03:41:29.207Z,95.00
2023-03-19T03:42:01.134Z,95.00
2023-03-19T03:42:37.072Z,95.00
2023-03-19T03:43:10.574Z,95.00
2023-03-19T03:43:42.402Z,94.90
2023-03-19T03:44:14.365Z,94.70
2023-03-19T03:44:46.741Z,95.30
2023-03-19T03:45:19.182Z,95.70
2023-03-19T03:45:50.980Z,95.10
2023-03-19T03:46:24.389Z,95.60
2023-03-19T03:46:58.063Z,95.40
2023-03-19T03:47:29.928Z,95.00
2023-03-19T03:48:03.451Z,95.00
2023-03-19T03:48:35.914Z,94.90
2023-03-19T03:49:08.640Z,94.90
2023-03-19T03:49:40.479Z,95.10
2023-03-19T03:50:12.631Z,94.50
2023-03-19T03:50:44.575Z,94.90
2023-03-19T03:51:20.536Z,95.00
2023-03-19T03:51:55.657Z,95.00
2023-03-19T03:52:31.315Z,94.70
2023-03-19T03:53:03.738Z,94.70
2023-03-19T03:53:35.658Z,94.90
2023-03-19T03:54:08.213Z,95.00
2023-03-19T03:54:40.011Z,95.50
2023-03-19T03:55:12.040Z,94.50
2023-03-19T03:55:44.170Z,94.90
2023-03-19T03:56:16.279Z,95.20
2023-03-19T03:56:50.073Z,94.90
2023-03-19T03:57:21.775Z,95.00
2023-03-19T03:57:54.154Z,95.10
2023-03-19T03:58:26.016Z,94.70
2023-03-19T03:58:57.786Z,94.70
2023-03-19T03:59:29.711Z,94.70
2023-03-19T04:00:01.639Z,95.00
2023-03-19T04:01:07.576Z,94.80
2023-03-19T04:01:39.373Z,95.10
2023-03-19T04:02:11.396Z,94.70
2023-03-19T04:02:43.188Z,95.10
2023-03-19T04:03:19.412Z,95.00
2023-03-19T04:03:51.255Z,95.10
2023-03-19T04:04:23.087Z,94.80
2023-03-19T04:04:54.989Z,95.00
2023-03-19T04:05:26.920Z,95.00
2023-03-19T04:05:58.907Z,95.90
2023-03-19T04:06:31.119Z,95.20
2023-03-19T04:07:25.163Z,95.00
2023-03-19T04:08:00.284Z,94.70
2023-03-19T04:08:32.059Z,94.70
2023-03-19T04:09:05.274Z,95.00
2023-03-19T04:09:37.109Z,95.00
2023-03-19T04:10:12.009Z,96.00
2023-03-19T04:10:44.640Z,95.40
2023-03-19T04:11:16.431Z,95.00
2023-03-19T04:11:51.367Z,95.10
2023-03-19T04:12:23.346Z,95.10
2023-03-19T04:13:28.621Z,94.60
2023-03-19T04:14:01.285Z,95.00
2023-03-19T04:15:08.633Z,94.80
2023-03-19T04:15:44.358Z,94.80
2023-03-19T04:16:17.331Z,95.00
2023-03-19T04:16:49.508Z,95.50
2023-03-19T04:17:21.302Z,95.10
2023-03-19T04:17:53.547Z,95.60
2023-03-19T04:18:25.845Z,95.10
2023-03-19T04:18:57.665Z,95.30
2023-03-19T04:19:29.637Z,95.00
2023-03-19T04:20:02.508Z,94.70
2023-03-19T04:20:34.651Z,94.70
2023-03-19T04:21:07.355Z,95.30
2023-03-19T04:21:39.578Z,94.80
2023-03-19T04:22:11.348Z,95.30
2023-03-19T04:22:43.197Z,95.40
2023-03-19T04:23:14.979Z,95.00
2023-03-19T04:23:47.128Z,95.00
2023-03-19T04:24:19.253Z,95.10
2023-03-19T04:24:51.301Z,95.70
2023-03-19T04:25:23.355Z,94.80
2023-03-19T04:26:07.417Z,94.80
2023-03-19T04:26:39.482Z,95.10
2023-03-19T04:27:11.508Z,95.00
2023-03-19T04:27:44.904Z,94.70
2023-03-19T04:28:17.358Z,94.70
2023-03-19T04:28:49.190Z,95.00
2023-03-19T04:29:21.241Z,94.70
2023-03-19T04:30:25.471Z,94.70
2023-03-19T04:31:02.785Z,94.70
2023-03-19T04:31:36.424Z,94.90
2023-03-19T04:32:08.490Z,95.80
2023-03-19T04:32:41.521Z,95.00
2023-03-19T04:33:13.485Z,94.90
2023-03-19T04:33:45.720Z,94.70
2023-03-19T04:34:17.558Z,94.60
2023-03-19T04:34:49.305Z,95.00
2023-03-19T04:35:21.418Z,95.70
2023-03-19T04:35:54.501Z,95.20
2023-03-19T04:36:26.547Z,95.10
2023-03-19T04:36:58.782Z,94.60
2023-03-19T04:37:30.738Z,94.80
2023-03-19T04:38:03.044Z,95.70
2023-03-19T04:38:34.963Z,94.60
2023-03-19T04:39:07.009Z,94.80
2023-03-19T04:39:39.315Z,95.40
2023-03-19T04:40:12.352Z,94.80
2023-03-19T04:40:44.168Z,95.70
2023-03-19T04:41:16.270Z,94.60
2023-03-19T04:41:58.533Z,95.20
2023-03-19T04:42:34.860Z,94.80
2023-03-19T04:43:13.814Z,94.90
2023-03-19T04:43:45.978Z,94.50
2023-03-19T04:44:18.702Z,95.00
2023-03-19T04:44:50.528Z,94.90
2023-03-19T04:45:22.427Z,94.90
2023-03-19T04:46:27.955Z,94.60
2023-03-19T04:46:59.915Z,95.30
2023-03-19T04:47:31.952Z,94.80
2023-03-19T04:48:06.869Z,94.70
2023-03-19T04:48:39.973Z,94.80
2023-03-19T04:49:13.125Z,95.00
2023-03-19T04:49:44.980Z,94.70
2023-03-19T04:50:16.951Z,94.70
2023-03-19T04:50:52.145Z,94.80
2023-03-19T04:51:24.516Z,95.80
2023-03-19T04:51:56.718Z,94.70
2023-03-19T04:52:29.893Z,94.90
2023-03-19T04:53:02.163Z,94.70
2023-03-19T04:53:35.650Z,94.60
2023-03-19T04:54:07.672Z,94.50
2023-03-19T04:54:39.453Z,94.50
2023-03-19T04:55:13.056Z,94.80
2023-03-19T04:55:53.922Z,94.80
2023-03-19T04:56:26.528Z,95.10
2023-03-19T04:56:58.512Z,94.60
2023-03-19T04:57:34.138Z,94.90
2023-03-19T04:58:06.028Z,94.60
2023-03-19T04:58:40.718Z,95.30
2023-03-19T04:59:12.885Z,94.20
2023-03-19T04:59:44.891Z,94.70
2023-03-19T05:00:19.124Z,95.00
2023-03-19T05:00:51.758Z,94.80
2023-03-19T05:01:28.582Z,94.80
2023-03-19T05:02:10.041Z,95.00
2023-03-19T05:02:44.213Z,94.90
2023-03-19T05:03:16.474Z,95.20
2023-03-19T05:03:49.700Z,94.90
2023-03-19T05:04:21.696Z,95.20
2023-03-19T05:04:54.381Z,95.00
2023-03-19T05:05:26.337Z,95.40
2023-03-19T05:05:58.217Z,95.30
2023-03-19T05:06:31.215Z,94.80
2023-03-19T05:07:03.405Z,94.60
2023-03-19T05:07:36.367Z,94.60
2023-03-19T05:08:10.303Z,95.00
2023-03-19T05:08:42.036Z,94.80
2023-03-19T05:09:13.775Z,94.50
2023-03-19T05:09:46.361Z,95.10
2023-03-19T05:10:19.674Z,95.70
2023-03-19T05:10:51.711Z,95.10
2023-03-19T05:11:23.676Z,95.10
2023-03-19T05:12:05.111Z,95.00
2023-03-19T05:12:42.459Z,94.80
2023-03-19T05:13:15.133Z,94.80
2023-03-19T05:13:52.935Z,94.80
2023-03-19T05:14:25.294Z,95.00
2023-03-19T05:15:11.730Z,95.00
2023-03-19T05:15:54.942Z,94.80
2023-03-19T05:16:27.579Z,94.80
2023-03-19T05:16:59.506Z,94.60
2023-03-19T05:17:35.953Z,95.60
2023-03-19T05:18:24.369Z,95.00
2023-03-19T05:18:56.668Z,94.70
2023-03-19T05:19:28.775Z,95.60
2023-03-19T05:20:00.635Z,95.40
2023-03-19T05:20:32.839Z,95.70
2023-03-19T05:21:13.693Z,94.90
2023-03-19T05:21:45.682Z,95.20
2023-03-19T05:22:20.088Z,95.30
2023-03-19T05:22:54.789Z,95.50
2023-03-19T05:23:33.257Z,94.90
2023-03-19T05:24:10.302Z,94.90
2023-03-19T05:24:42.555Z,95.70
2023-03-19T05:25:14.637Z,94.80
2023-03-19T05:25:47.764Z,95.00
2023-03-19T05:26:24.425Z,95.00
2023-03-19T05:27:21.922Z,95.10
2023-03-19T05:28:09.687Z,95.50
2023-03-19T05:28:41.622Z,94.90
2023-03-19T05:29:14.637Z,94.70
2023-03-19T05:30:00.209Z,95.50
2023-03-19T05:30:55.511Z,95.60
2023-03-19T05:31:31.599Z,97.30
2023-03-19T05:32:03.672Z,94.90
2023-03-19T05:32:37.428Z,94.60
2023-03-19T05:33:12.633Z,95.60
2023-03-19T05:33:46.978Z,94.70
2023-03-19T05:34:52.131Z,94.60
2023-03-19T05:35:25.012Z,94.90
2023-03-19T05:35:58.353Z,95.30
2023-03-19T05:36:38.732Z,95.40
2023-03-19T05:37:17.042Z,94.80
2023-03-19T05:37:51.968Z,95.20
2023-03-19T05:38:24.158Z,94.90
2023-03-19T05:39:10.100Z,95.50
2023-03-19T05:39:43.532Z,95.80
2023-03-19T05:40:16.566Z,94.60
2023-03-19T05:40:50.610Z,94.80
2023-03-19T05:41:28.798Z,95.70
2023-03-19T05:42:06.549Z,95.70
2023-03-19T05:42:38.639Z,95.00
2023-03-19T05:43:11.819Z,94.90
2023-03-19T05:43:43.916Z,95.50
2023-03-19T05:44:24.650Z,95.00
2023-03-19T05:45:05.711Z,94.60
2023-03-19T05:45:53.797Z,94.70
2023-03-19T05:46:29.780Z,94.80
2023-03-19T05:47:01.785Z,94.60
2023-03-19T05:47:37.202Z,95.00
2023-03-19T05:48:09.100Z,95.30
2023-03-19T05:48:45.184Z,94.70
2023-03-19T05:49:16.991Z,94.80
2023-03-19T05:49:48.760Z,94.90
2023-03-19T05:50:20.747Z,95.20
2023-03-19T05:51:15.561Z,94.70
2023-03-19T05:51:49.404Z,95.00
2023-03-19T05:52:21.822Z,94.60
2023-03-19T05:52:54.426Z,95.50
2023-03-19T05:53:27.335Z,95.10
2023-03-19T05:54:16.532Z,94.70
2023-03-19T05:55:03.010Z,95.00
2023-03-19T05:55:43.440Z,95.00
2023-03-19T05:56:16.225Z,95.70
2023-03-19T05:57:17.648Z,94.90
2023-03-19T05:58:12.070Z,95.00
2023-03-19T05:58:43.937Z,95.60
2023-03-19T05:59:16.081Z,94.90
2023-03-19T05:59:54.209Z,94.90
2023-03-19T06:00:37.987Z,95.40
2023-03-19T06:01:09.786Z,94.70
2023-03-19T06:01:41.861Z,95.00
2023-03-19T06:02:13.650Z,94.70
2023-03-19T06:02:45.772Z,95.70
2023-03-19T06:03:39.500Z,95.80
2023-03-19T06:04:13.804Z,95.00
2023-03-19T06:04:45.926Z,95.20
2023-03-19T06:05:17.768Z,95.00
2023-03-19T06:05:51.278Z,95.00
2023-03-19T06:06:37.010Z,95.00
2023-03-19T06:07:09.183Z,95.50
2023-03-19T06:07:43.230Z,95.00
2023-03-19T06:08:21.949Z,95.10
2023-03-19T06:09:16.908Z,95.00
2023-03-19T06:09:53.737Z,95.40
2023-03-19T06:10:25.752Z,95.20
2023-03-19T06:11:00.386Z,95.00
2023-03-19T06:11:33.020Z,95.30
2023-03-19T06:12:24.766Z,95.20
2023-03-19T06:13:16.658Z,94.70
2023-03-19T06:13:57.047Z,95.60
2023-03-19T06:14:28.932Z,95.50
2023-03-19T06:15:21.041Z,95.00
2023-03-19T06:16:19.034Z,95.30
2023-03-19T06:16:58.323Z,95.30
2023-03-19T06:17:30.133Z,94.90
2023-03-19T06:18:06.156Z,95.10
2023-03-19T06:18:38.253Z,95.00
2023-03-19T06:19:13.996Z,95.60
2023-03-19T06:19:46.301Z,94.90
2023-03-19T06:20:18.923Z,95.20
2023-03-19T06:20:50.800Z,95.00
2023-03-19T06:21:23.262Z,95.50
2023-03-19T06:21:55.781Z,95.50
2023-03-19T06:22:27.835Z,95.70
2023-03-19T06:22:59.729Z,95.20
2023-03-19T06:23:32.335Z,94.70
2023-03-19T06:24:06.560Z,94.70
2023-03-19T06:24:40.862Z,95.00
2023-03-19T06:25:12.889Z,95.00
2023-03-19T06:25:46.174Z,95.30
2023-03-19T06:26:18.852Z,94.90
2023-03-19T06:26:59.479Z,94.90
2023-03-19T06:27:31.397Z,94.80
2023-03-19T06:28:14.332Z,95.10
2023-03-19T06:28:48.307Z,94.80
2023-03-19T06:29:20.661Z,94.60
2023-03-19T06:29:56.661Z,94.60
2023-03-19T06:30:36.590Z,94.90
2023-03-19T06:31:12.704Z,94.70
2023-03-19T06:31:59.797Z,95.10
2023-03-19T06:32:40.551Z,95.60
2023-03-19T06:33:15.557Z,95.60
2023-03-19T06:33:47.468Z,94.90
2023-03-19T06:34:19.449Z,94.90
2023-03-19T06:34:51.661Z,95.10
2023-03-19T06:35:24.582Z,94.70
2023-03-19T06:35:57.725Z,95.40
2023-03-19T06:36:29.799Z,95.40
2023-03-19T06:37:02.276Z,95.10
2023-03-19T06:37:34.228Z,94.90
2023-03-19T06:38:06.276Z,94.80
2023-03-19T06:38:38.036Z,95.40
2023-03-19T06:39:10.201Z,94.60
2023-03-19T06:39:42.163Z,95.50
2023-03-19T06:40:13.972Z,95.10
2023-03-19T06:40:45.710Z,95.00
2023-03-19T06:41:17.794Z,95.00
2023-03-19T06:41:51.468Z,94.90
2023-03-19T06:42:27.004Z,95.00
2023-03-19T06:42:59.045Z,95.30
2023-03-19T06:43:31.853Z,95.50
2023-03-19T06:44:04.688Z,95.30
2023-03-19T06:44:36.429Z,95.00
2023-03-19T06:45:08.680Z,95.10
2023-03-19T06:45:40.672Z,95.00
2023-03-19T06:46:12.982Z,94.90
2023-03-19T06:46:45.065Z,94.70
2023-03-19T06:47:16.828Z,94.80
2023-03-19T06:47:50.136Z,95.00
2023-03-19T06:48:22.905Z,94.90
2023-03-19T06:48:55.004Z,95.60
2023-03-19T06:49:27.232Z,94.60
2023-03-19T06:49:59.718Z,95.40
2023-03-19T06:50:31.846Z,95.00
2023-03-19T06:51:04.053Z,94.90
2023-03-19T06:51:36.043Z,94.80
2023-03-19T06:52:08.313Z,94.70
2023-03-19T06:52:40.854Z,94.90
2023-03-19T06:53:13.554Z,94.90
2023-03-19T06:53:45.369Z,95.00
2023-03-19T06:54:17.159Z,94.90
2023-03-19T06:54:49.747Z,94.60
2023-03-19T06:55:21.526Z,95.10
2023-03-19T06:55:53.415Z,95.50
2023-03-19T06:56:25.994Z,95.40
2023-03-19T06:56:58.424Z,94.80
2023-03-19T06:57:30.543Z,94.90
2023-03-19T06:58:02.302Z,94.80
2023-03-19T06:58:36.276Z,95.60
2023-03-19T06:59:08.119Z,95.10
2023-03-19T06:59:39.856Z,94.90
2023-03-19T07:00:13.054Z,95.20
2023-03-19T07:00:44.848Z,94.90
2023-03-19T07:01:16.760Z,94.80
2023-03-19T07:01:48.590Z,95.00
2023-03-19T07:02:20.767Z,95.20
2023-03-19T07:02:52.519Z,95.70
2023-03-19T07:03:24.454Z,94.80
2023-03-19T07:03:57.239Z,94.80
2023-03-19T07:04:30.184Z,95.30
2023-03-19T07:05:01.924Z,95.00
2023-03-19T07:05:33.956Z,95.10
2023-03-19T07:06:07.127Z,94.90
2023-03-19T07:06:38.928Z,94.80
2023-03-19T07:07:10.839Z,94.90
2023-03-19T07:07:42.736Z,94.80
2023-03-19T07:08:14.465Z,95.60
2023-03-19T07:08:46.484Z,95.00
2023-03-19T07:09:18.374Z,94.80
2023-03-19T07:09:50.450Z,94.80
2023-03-19T07:10:22.478Z,94.90
2023-03-19T07:10:54.204Z,95.00
2023-03-19T07:11:25.989Z,94.90
2023-03-19T07:11:57.826Z,94.80
2023-03-19T07:12:29.780Z,94.90
2023-03-19T07:13:01.484Z,95.60
2023-03-19T07:13:34.076Z,95.00
2023-03-19T07:14:05.844Z,94.70
2023-03-19T07:14:37.557Z,94.90
2023-03-19T07:15:09.912Z,94.70
2023-03-19T07:15:41.665Z,95.70
2023-03-19T07:16:13.463Z,95.40
2023-03-19T07:16:45.289Z,95.00
2023-03-19T07:17:17.021Z,95.10
2023-03-19T07:17:49.651Z,94.90
2023-03-19T07:18:21.409Z,95.00
2023-03-19T07:18:53.144Z,94.80
2023-03-19T07:19:24.900Z,94.90
2023-03-19T07:19:56.932Z,95.50
2023-03-19T07:20:29.046Z,95.10
2023-03-19T07:21:00.850Z,95.80
2023-03-19T07:21:32.631Z,95.40
2023-03-19T07:22:04.473Z,94.80
2023-03-19T07:22:36.278Z,95.10
2023-03-19T07:23:08.065Z,94.90
2023-03-19T07:23:40.235Z,95.30
2023-03-19T07:24:11.997Z,95.40
2023-03-19T07:24:44.647Z,94.80
2023-03-19T07:25:16.565Z,95.20
2023-03-19T07:25:48.487Z,95.00
2023-03-19T07:26:20.346Z,95.00
2023-03-19T07:26:52.177Z,94.60
2023-03-19T07:27:24.023Z,95.50
2023-03-19T07:27:56.250Z,94.90
2023-03-19T07:28:28.127Z,94.90
2023-03-19T07:29:00.541Z,94.90
2023-03-19T07:29:32.671Z,94.90
2023-03-19T07:30:04.650Z,94.80
2023-03-19T07:30:38.112Z,94.90
2023-03-19T07:31:09.864Z,94.90
2023-03-19T07:31:42.346Z,94.80